sensor_id;sensor_type;location;lat;lon;timestamp;P1;durP1;ratioP1;P2;durP2;ratioP2
75768;SDS011;64379;48.888;8.330;2023-02-13T00:01:41;10.85;;;5.22;;
75768;SDS011;64379;48.888;8.330;2023-02-13T00:04:07;10.40;;;4.85;;
75768;SDS011;64379;48.888;8.330;2023-02-13T00:06:32;11.43;;;5.80;;
75768;SDS011;64379;48.888;8.330;2023-02-13T00:08:58;10.55;;;5.10;;
75768;SDS011;64379;48.888;8.330;2023-02-13T00:11:23;15.18;;;5.95;;
75768;SDS011;64379;48.888;8.330;2023-02-13T00:13:49;10.70;;;5.00;;
75768;SDS011;64379;48.888;8.330;2023-02-13T00:16:15;12.15;;;5.43;;
75768;SDS011;64379;48.888;8.330;2023-02-13T00:18:40;11.88;;;4.97;;
75768;SDS011;64379;48.888;8.330;2023-02-13T00:21:10;11.75;;;5.47;;
75768;SDS011;64379;48.888;8.330;2023-02-13T00:23:37;13.35;;;5.88;;
75768;SDS011;64379;48.888;8.330;2023-02-13T00:26:05;11.93;;;5.45;;
75768;SDS011;64379;48.888;8.330;2023-02-13T00:28:32;12.05;;;5.82;;
75768;SDS011;64379;48.888;8.330;2023-02-13T00:31:02;12.30;;;6.10;;
75768;SDS011;64379;48.888;8.330;2023-02-13T00:33:29;13.15;;;6.45;;
75768;SDS011;64379;48.888;8.330;2023-02-13T00:36:02;11.57;;;5.80;;
75768;SDS011;64379;48.888;8.330;2023-02-13T00:38:29;12.77;;;5.60;;
75768;SDS011;64379;48.888;8.330;2023-02-13T00:40:55;12.38;;;6.03;;
75768;SDS011;64379;48.888;8.330;2023-02-13T00:43:20;11.93;;;5.90;;
75768;SDS011;64379;48.888;8.330;2023-02-13T00:45:46;12.77;;;5.80;;
75768;SDS011;64379;48.888;8.330;2023-02-13T00:48:11;12.52;;;6.20;;
75768;SDS011;64379;48.888;8.330;2023-02-13T00:50:37;13.77;;;6.32;;
75768;SDS011;64379;48.888;8.330;2023-02-13T00:53:03;12.27;;;6.20;;
75768;SDS011;64379;48.888;8.330;2023-02-13T00:55:28;12.02;;;6.13;;
75768;SDS011;64379;48.888;8.330;2023-02-13T00:57:54;12.25;;;6.00;;
75768;SDS011;64379;48.888;8.330;2023-02-13T01:00:20;12.80;;;5.93;;
75768;SDS011;64379;48.888;8.330;2023-02-13T01:02:45;14.30;;;6.30;;
75768;SDS011;64379;48.888;8.330;2023-02-13T01:05:12;13.48;;;5.68;;
75768;SDS011;64379;48.888;8.330;2023-02-13T01:07:38;14.23;;;6.43;;
75768;SDS011;64379;48.888;8.330;2023-02-13T01:10:04;12.00;;;6.30;;
75768;SDS011;64379;48.888;8.330;2023-02-13T01:12:30;12.32;;;5.63;;
75768;SDS011;64379;48.888;8.330;2023-02-13T01:14:56;11.82;;;5.95;;
75768;SDS011;64379;48.888;8.330;2023-02-13T01:17:21;11.68;;;6.10;;
75768;SDS011;64379;48.888;8.330;2023-02-13T01:19:47;12.90;;;5.68;;
75768;SDS011;64379;48.888;8.330;2023-02-13T01:22:12;11.52;;;5.57;;
75768;SDS011;64379;48.888;8.330;2023-02-13T01:24:38;13.05;;;6.10;;
75768;SDS011;64379;48.888;8.330;2023-02-13T01:27:04;13.90;;;6.25;;
75768;SDS011;64379;48.888;8.330;2023-02-13T01:29:29;13.20;;;6.47;;
75768;SDS011;64379;48.888;8.330;2023-02-13T01:31:55;12.88;;;6.25;;
75768;SDS011;64379;48.888;8.330;2023-02-13T01:34:21;14.13;;;6.68;;
75768;SDS011;64379;48.888;8.330;2023-02-13T01:36:46;13.60;;;6.13;;
75768;SDS011;64379;48.888;8.330;2023-02-13T01:39:12;13.45;;;6.15;;
75768;SDS011;64379;48.888;8.330;2023-02-13T01:41:37;14.27;;;6.20;;
75768;SDS011;64379;48.888;8.330;2023-02-13T01:44:43;13.48;;;6.43;;
75768;SDS011;64379;48.888;8.330;2023-02-13T01:47:08;13.85;;;6.20;;
75768;SDS011;64379;48.888;8.330;2023-02-13T01:49:36;19.83;;;7.78;;
75768;SDS011;64379;48.888;8.330;2023-02-13T01:52:02;14.23;;;6.57;;
75768;SDS011;64379;48.888;8.330;2023-02-13T01:54:28;15.30;;;6.45;;
75768;SDS011;64379;48.888;8.330;2023-02-13T01:56:57;17.10;;;7.05;;
75768;SDS011;64379;48.888;8.330;2023-02-13T01:59:28;17.23;;;7.13;;
75768;SDS011;64379;48.888;8.330;2023-02-13T02:01:56;17.92;;;7.72;;
75768;SDS011;64379;48.888;8.330;2023-02-13T02:04:32;13.27;;;6.28;;
75768;SDS011;64379;48.888;8.330;2023-02-13T02:07:10;15.07;;;6.85;;
75768;SDS011;64379;48.888;8.330;2023-02-13T02:09:41;15.13;;;7.10;;
75768;SDS011;64379;48.888;8.330;2023-02-13T02:12:23;14.65;;;6.55;;
75768;SDS011;64379;48.888;8.330;2023-02-13T02:14:51;14.73;;;6.78;;
75768;SDS011;64379;48.888;8.330;2023-02-13T02:17:18;15.20;;;6.35;;
75768;SDS011;64379;48.888;8.330;2023-02-13T02:19:48;13.85;;;5.55;;
75768;SDS011;64379;48.888;8.330;2023-02-13T02:27:48;7.63;;;3.30;;
75768;SDS011;64379;48.888;8.330;2023-02-13T02:33:16;8.68;;;3.70;;
75768;SDS011;64379;48.888;8.330;2023-02-13T02:47:08;8.50;;;3.47;;
75768;SDS011;64379;48.888;8.330;2023-02-13T03:01:35;6.75;;;3.15;;
75768;SDS011;64379;48.888;8.330;2023-02-13T03:07:11;9.05;;;3.13;;
75768;SDS011;64379;48.888;8.330;2023-02-13T03:09:47;9.45;;;3.55;;
75768;SDS011;64379;48.888;8.330;2023-02-13T03:12:43;8.73;;;3.05;;
75768;SDS011;64379;48.888;8.330;2023-02-13T03:15:34;8.15;;;3.30;;
75768;SDS011;64379;48.888;8.330;2023-02-13T03:18:21;7.47;;;3.20;;
75768;SDS011;64379;48.888;8.330;2023-02-13T03:21:20;7.68;;;3.08;;
75768;SDS011;64379;48.888;8.330;2023-02-13T03:27:08;7.82;;;3.22;;
75768;SDS011;64379;48.888;8.330;2023-02-13T03:30:13;8.60;;;3.08;;
75768;SDS011;64379;48.888;8.330;2023-02-13T03:32:53;10.48;;;3.40;;
75768;SDS011;64379;48.888;8.330;2023-02-13T03:42:12;8.45;;;3.20;;
75768;SDS011;64379;48.888;8.330;2023-02-13T03:44:59;8.70;;;3.63;;
75768;SDS011;64379;48.888;8.330;2023-02-13T03:47:52;8.98;;;3.22;;
75768;SDS011;64379;48.888;8.330;2023-02-13T03:50:21;8.77;;;3.63;;
75768;SDS011;64379;48.888;8.330;2023-02-13T03:53:03;10.57;;;3.75;;
75768;SDS011;64379;48.888;8.330;2023-02-13T03:55:33;10.05;;;3.78;;
75768;SDS011;64379;48.888;8.330;2023-02-13T03:58:33;8.77;;;3.65;;
75768;SDS011;64379;48.888;8.330;2023-02-13T04:01:21;8.02;;;3.92;;
75768;SDS011;64379;48.888;8.330;2023-02-13T04:06:48;11.80;;;4.22;;
75768;SDS011;64379;48.888;8.330;2023-02-13T04:09:18;9.60;;;3.22;;
75768;SDS011;64379;48.888;8.330;2023-02-13T04:17:04;9.68;;;3.80;;
75768;SDS011;64379;48.888;8.330;2023-02-13T04:19:32;9.70;;;3.70;;
75768;SDS011;64379;48.888;8.330;2023-02-13T04:21:58;8.65;;;3.65;;
75768;SDS011;64379;48.888;8.330;2023-02-13T04:24:26;8.00;;;3.42;;
75768;SDS011;64379;48.888;8.330;2023-02-13T04:26:52;8.82;;;3.72;;
75768;SDS011;64379;48.888;8.330;2023-02-13T04:29:22;9.90;;;3.92;;
75768;SDS011;64379;48.888;8.330;2023-02-13T04:31:49;8.10;;;3.75;;
75768;SDS011;64379;48.888;8.330;2023-02-13T04:34:15;8.88;;;3.83;;
75768;SDS011;64379;48.888;8.330;2023-02-13T04:36:40;8.00;;;3.40;;
75768;SDS011;64379;48.888;8.330;2023-02-13T04:39:06;8.20;;;3.08;;
75768;SDS011;64379;48.888;8.330;2023-02-13T04:41:32;8.15;;;3.72;;
75768;SDS011;64379;48.888;8.330;2023-02-13T04:43:57;9.15;;;3.70;;
75768;SDS011;64379;48.888;8.330;2023-02-13T04:46:23;10.07;;;3.78;;
75768;SDS011;64379;48.888;8.330;2023-02-13T04:48:49;8.13;;;3.20;;
75768;SDS011;64379;48.888;8.330;2023-02-13T04:51:14;9.70;;;3.35;;
75768;SDS011;64379;48.888;8.330;2023-02-13T04:53:40;8.35;;;3.22;;
75768;SDS011;64379;48.888;8.330;2023-02-13T04:56:06;7.13;;;3.03;;
75768;SDS011;64379;48.888;8.330;2023-02-13T04:58:31;7.75;;;3.13;;
75768;SDS011;64379;48.888;8.330;2023-02-13T05:00:57;10.80;;;3.55;;
75768;SDS011;64379;48.888;8.330;2023-02-13T05:03:23;10.25;;;3.83;;
75768;SDS011;64379;48.888;8.330;2023-02-13T05:05:48;12.52;;;4.20;;
75768;SDS011;64379;48.888;8.330;2023-02-13T05:08:14;9.23;;;3.85;;
75768;SDS011;64379;48.888;8.330;2023-02-13T05:10:40;9.52;;;3.90;;
75768;SDS011;64379;48.888;8.330;2023-02-13T05:13:05;8.30;;;3.72;;
75768;SDS011;64379;48.888;8.330;2023-02-13T05:15:31;11.05;;;4.13;;
75768;SDS011;64379;48.888;8.330;2023-02-13T05:17:57;10.45;;;4.15;;
75768;SDS011;64379;48.888;8.330;2023-02-13T05:20:23;8.93;;;3.72;;
75768;SDS011;64379;48.888;8.330;2023-02-13T05:22:50;11.50;;;3.92;;
75768;SDS011;64379;48.888;8.330;2023-02-13T05:25:36;10.30;;;4.03;;
75768;SDS011;64379;48.888;8.330;2023-02-13T05:28:03;8.70;;;3.83;;
75768;SDS011;64379;48.888;8.330;2023-02-13T05:30:49;8.27;;;3.85;;
75768;SDS011;64379;48.888;8.330;2023-02-13T05:33:15;14.10;;;5.65;;
75768;SDS011;64379;48.888;8.330;2023-02-13T05:35:41;11.15;;;4.57;;
75768;SDS011;64379;48.888;8.330;2023-02-13T05:38:06;13.75;;;6.00;;
75768;SDS011;64379;48.888;8.330;2023-02-13T05:40:32;17.77;;;7.53;;
75768;SDS011;64379;48.888;8.330;2023-02-13T05:42:57;19.55;;;7.70;;
75768;SDS011;64379;48.888;8.330;2023-02-13T05:45:23;16.15;;;7.55;;
75768;SDS011;64379;48.888;8.330;2023-02-13T05:47:49;22.08;;;8.55;;
75768;SDS011;64379;48.888;8.330;2023-02-13T05:50:14;19.50;;;7.65;;
75768;SDS011;64379;48.888;8.330;2023-02-13T05:52:40;22.48;;;8.15;;
75768;SDS011;64379;48.888;8.330;2023-02-13T05:55:06;34.90;;;11.25;;
75768;SDS011;64379;48.888;8.330;2023-02-13T05:57:31;21.48;;;8.00;;
75768;SDS011;64379;48.888;8.330;2023-02-13T05:59:57;24.08;;;8.35;;
75768;SDS011;64379;48.888;8.330;2023-02-13T06:02:23;21.73;;;8.15;;
75768;SDS011;64379;48.888;8.330;2023-02-13T06:04:48;25.80;;;9.18;;
75768;SDS011;64379;48.888;8.330;2023-02-13T06:07:14;21.88;;;8.35;;
75768;SDS011;64379;48.888;8.330;2023-02-13T06:09:39;20.98;;;8.63;;
75768;SDS011;64379;48.888;8.330;2023-02-13T06:12:05;16.17;;;6.80;;
75768;SDS011;64379;48.888;8.330;2023-02-13T06:14:31;23.58;;;7.22;;
75768;SDS011;64379;48.888;8.330;2023-02-13T06:16:56;32.92;;;7.40;;
75768;SDS011;64379;48.888;8.330;2023-02-13T06:19:22;27.38;;;5.93;;
75768;SDS011;64379;48.888;8.330;2023-02-13T06:21:48;47.88;;;9.57;;
75768;SDS011;64379;48.888;8.330;2023-02-13T06:24:13;55.60;;;12.05;;
75768;SDS011;64379;48.888;8.330;2023-02-13T06:26:39;33.65;;;9.65;;
75768;SDS011;64379;48.888;8.330;2023-02-13T06:29:04;96.88;;;17.13;;
75768;SDS011;64379;48.888;8.330;2023-02-13T06:31:30;69.90;;;14.48;;
75768;SDS011;64379;48.888;8.330;2023-02-13T06:33:56;31.90;;;11.30;;
75768;SDS011;64379;48.888;8.330;2023-02-13T06:36:21;57.15;;;14.70;;
75768;SDS011;64379;48.888;8.330;2023-02-13T06:38:47;78.78;;;16.25;;
75768;SDS011;64379;48.888;8.330;2023-02-13T06:41:12;52.33;;;16.88;;
75768;SDS011;64379;48.888;8.330;2023-02-13T06:43:38;61.78;;;16.10;;
75768;SDS011;64379;48.888;8.330;2023-02-13T06:46:07;60.70;;;17.40;;
75768;SDS011;64379;48.888;8.330;2023-02-13T06:48:33;72.20;;;17.73;;
75768;SDS011;64379;48.888;8.330;2023-02-13T06:50:59;63.60;;;18.30;;
75768;SDS011;64379;48.888;8.330;2023-02-13T06:53:26;61.10;;;18.25;;
75768;SDS011;64379;48.888;8.330;2023-02-13T06:55:52;80.78;;;19.15;;
75768;SDS011;64379;48.888;8.330;2023-02-13T06:58:19;75.15;;;19.52;;
75768;SDS011;64379;48.888;8.330;2023-02-13T07:00:45;91.22;;;19.33;;
75768;SDS011;64379;48.888;8.330;2023-02-13T07:03:11;61.28;;;17.58;;
75768;SDS011;64379;48.888;8.330;2023-02-13T07:05:40;68.63;;;19.48;;
75768;SDS011;64379;48.888;8.330;2023-02-13T07:10:32;76.05;;;16.27;;
75768;SDS011;64379;48.888;8.330;2023-02-13T07:12:58;66.55;;;15.10;;
75768;SDS011;64379;48.888;8.330;2023-02-13T07:15:23;111.45;;;17.80;;
75768;SDS011;64379;48.888;8.330;2023-02-13T07:17:56;64.38;;;15.90;;
75768;SDS011;64379;48.888;8.330;2023-02-13T07:20:22;98.82;;;16.80;;
75768;SDS011;64379;48.888;8.330;2023-02-13T07:22:49;97.95;;;16.15;;
75768;SDS011;64379;48.888;8.330;2023-02-13T07:25:14;65.80;;;17.02;;
75768;SDS011;64379;48.888;8.330;2023-02-13T07:27:40;78.47;;;16.15;;
75768;SDS011;64379;48.888;8.330;2023-02-13T07:30:06;109.10;;;18.40;;
75768;SDS011;64379;48.888;8.330;2023-02-13T07:32:32;102.57;;;16.90;;
75768;SDS011;64379;48.888;8.330;2023-02-13T07:34:58;92.68;;;16.73;;
75768;SDS011;64379;48.888;8.330;2023-02-13T07:37:23;131.57;;;18.10;;
75768;SDS011;64379;48.888;8.330;2023-02-13T07:39:51;66.35;;;16.52;;
75768;SDS011;64379;48.888;8.330;2023-02-13T07:42:16;99.63;;;19.65;;
75768;SDS011;64379;48.888;8.330;2023-02-13T07:44:42;87.63;;;17.27;;
75768;SDS011;64379;48.888;8.330;2023-02-13T07:47:08;91.43;;;16.48;;
75768;SDS011;64379;48.888;8.330;2023-02-13T07:49:34;60.88;;;16.55;;
75768;SDS011;64379;48.888;8.330;2023-02-13T07:52:00;64.68;;;15.25;;
75768;SDS011;64379;48.888;8.330;2023-02-13T07:54:26;124.97;;;17.70;;
75768;SDS011;64379;48.888;8.330;2023-02-13T07:56:52;103.22;;;16.60;;
75768;SDS011;64379;48.888;8.330;2023-02-13T07:59:17;65.80;;;13.85;;
75768;SDS011;64379;48.888;8.330;2023-02-13T08:01:43;61.20;;;16.17;;
75768;SDS011;64379;48.888;8.330;2023-02-13T08:04:09;61.65;;;19.08;;
75768;SDS011;64379;48.888;8.330;2023-02-13T08:06:37;62.97;;;15.73;;
75768;SDS011;64379;48.888;8.330;2023-02-13T08:09:03;70.95;;;16.80;;
75768;SDS011;64379;48.888;8.330;2023-02-13T08:11:47;89.57;;;17.88;;
75768;SDS011;64379;48.888;8.330;2023-02-13T08:14:23;130.65;;;20.33;;
75768;SDS011;64379;48.888;8.330;2023-02-13T08:16:50;68.65;;;15.30;;
75768;SDS011;64379;48.888;8.330;2023-02-13T08:19:17;34.97;;;10.50;;
75768;SDS011;64379;48.888;8.330;2023-02-13T08:21:43;66.55;;;15.55;;
75768;SDS011;64379;48.888;8.330;2023-02-13T08:24:08;30.45;;;12.00;;
75768;SDS011;64379;48.888;8.330;2023-02-13T08:26:34;50.33;;;11.55;;
75768;SDS011;64379;48.888;8.330;2023-02-13T08:29:00;76.63;;;17.08;;
75768;SDS011;64379;48.888;8.330;2023-02-13T08:31:26;54.92;;;16.15;;
75768;SDS011;64379;48.888;8.330;2023-02-13T08:33:52;54.35;;;15.38;;
75768;SDS011;64379;48.888;8.330;2023-02-13T08:36:17;46.95;;;13.68;;
75768;SDS011;64379;48.888;8.330;2023-02-13T08:38:47;91.05;;;18.52;;
75768;SDS011;64379;48.888;8.330;2023-02-13T08:41:13;54.92;;;15.95;;
75768;SDS011;64379;48.888;8.330;2023-02-13T08:43:39;58.13;;;17.00;;
75768;SDS011;64379;48.888;8.330;2023-02-13T08:46:04;69.70;;;19.92;;
75768;SDS011;64379;48.888;8.330;2023-02-13T08:48:30;56.15;;;17.52;;
75768;SDS011;64379;48.888;8.330;2023-02-13T08:50:57;71.95;;;17.73;;
75768;SDS011;64379;48.888;8.330;2023-02-13T08:53:22;57.15;;;16.85;;
75768;SDS011;64379;48.888;8.330;2023-02-13T08:55:57;62.25;;;15.57;;
75768;SDS011;64379;48.888;8.330;2023-02-13T08:58:22;60.65;;;16.17;;
75768;SDS011;64379;48.888;8.330;2023-02-13T09:00:48;81.25;;;16.65;;
75768;SDS011;64379;48.888;8.330;2023-02-13T09:03:14;81.70;;;17.45;;
75768;SDS011;64379;48.888;8.330;2023-02-13T09:05:40;79.40;;;14.25;;
75768;SDS011;64379;48.888;8.330;2023-02-13T09:08:06;74.05;;;17.52;;
75768;SDS011;64379;48.888;8.330;2023-02-13T09:10:35;88.18;;;17.92;;
75768;SDS011;64379;48.888;8.330;2023-02-13T09:13:01;59.45;;;17.15;;
75768;SDS011;64379;48.888;8.330;2023-02-13T09:15:27;64.72;;;16.08;;
75768;SDS011;64379;48.888;8.330;2023-02-13T09:17:53;40.47;;;13.75;;
75768;SDS011;64379;48.888;8.330;2023-02-13T09:20:19;36.58;;;10.90;;
75768;SDS011;64379;48.888;8.330;2023-02-13T09:22:44;37.17;;;12.95;;
75768;SDS011;64379;48.888;8.330;2023-02-13T09:25:10;51.63;;;16.75;;
75768;SDS011;64379;48.888;8.330;2023-02-13T09:27:36;55.40;;;17.20;;
75768;SDS011;64379;48.888;8.330;2023-02-13T09:30:03;67.90;;;18.25;;
75768;SDS011;64379;48.888;8.330;2023-02-13T09:32:34;43.15;;;14.95;;
75768;SDS011;64379;48.888;8.330;2023-02-13T09:35:01;42.20;;;14.10;;
75768;SDS011;64379;48.888;8.330;2023-02-13T09:37:28;61.90;;;17.05;;
75768;SDS011;64379;48.888;8.330;2023-02-13T09:39:53;53.45;;;17.58;;
75768;SDS011;64379;48.888;8.330;2023-02-13T09:42:29;66.80;;;18.15;;
75768;SDS011;64379;48.888;8.330;2023-02-13T09:45:01;45.83;;;15.90;;
75768;SDS011;64379;48.888;8.330;2023-02-13T09:52:47;61.03;;;16.20;;
75768;SDS011;64379;48.888;8.330;2023-02-13T10:05:27;27.58;;;11.43;;
75768;SDS011;64379;48.888;8.330;2023-02-13T10:11:37;33.45;;;12.90;;
75768;SDS011;64379;48.888;8.330;2023-02-13T10:13:47;32.60;;;13.55;;
75768;SDS011;64379;48.888;8.330;2023-02-13T10:16:18;33.83;;;13.30;;
75768;SDS011;64379;48.888;8.330;2023-02-13T10:18:49;37.15;;;13.77;;
75768;SDS011;64379;48.888;8.330;2023-02-13T10:21:23;37.70;;;13.70;;
75768;SDS011;64379;48.888;8.330;2023-02-13T10:23:56;35.63;;;12.85;;
75768;SDS011;64379;48.888;8.330;2023-02-13T10:26:33;41.30;;;14.13;;
75768;SDS011;64379;48.888;8.330;2023-02-13T10:29:20;37.97;;;14.25;;
75768;SDS011;64379;48.888;8.330;2023-02-13T10:32:07;40.17;;;15.07;;
75768;SDS011;64379;48.888;8.330;2023-02-13T10:34:40;38.20;;;13.93;;
75768;SDS011;64379;48.888;8.330;2023-02-13T10:37:13;36.05;;;13.80;;
75768;SDS011;64379;48.888;8.330;2023-02-13T10:39:44;36.75;;;14.00;;
75768;SDS011;64379;48.888;8.330;2023-02-13T11:01:12;34.75;;;14.00;;
75768;SDS011;64379;48.888;8.330;2023-02-13T11:03:40;35.55;;;14.63;;
75768;SDS011;64379;48.888;8.330;2023-02-13T11:06:07;35.22;;;13.98;;
75768;SDS011;64379;48.888;8.330;2023-02-13T11:08:43;38.35;;;15.30;;
75768;SDS011;64379;48.888;8.330;2023-02-13T11:11:31;40.20;;;15.85;;
75768;SDS011;64379;48.888;8.330;2023-02-13T11:14:09;39.40;;;15.02;;
75768;SDS011;64379;48.888;8.330;2023-02-13T11:16:40;35.72;;;15.73;;
75768;SDS011;64379;48.888;8.330;2023-02-13T11:22:25;36.33;;;15.15;;
75768;SDS011;64379;48.888;8.330;2023-02-13T11:24:53;40.65;;;15.55;;
75768;SDS011;64379;48.888;8.330;2023-02-13T11:27:23;41.25;;;16.23;;
75768;SDS011;64379;48.888;8.330;2023-02-13T11:29:55;38.67;;;16.02;;
75768;SDS011;64379;48.888;8.330;2023-02-13T11:32:26;35.40;;;14.35;;
75768;SDS011;64379;48.888;8.330;2023-02-13T11:34:56;37.63;;;15.30;;
75768;SDS011;64379;48.888;8.330;2023-02-13T11:37:30;39.03;;;15.80;;
75768;SDS011;64379;48.888;8.330;2023-02-13T11:39:57;39.63;;;15.50;;
75768;SDS011;64379;48.888;8.330;2023-02-13T11:42:26;37.63;;;16.50;;
75768;SDS011;64379;48.888;8.330;2023-02-13T11:45:21;33.78;;;13.73;;
75768;SDS011;64379;48.888;8.330;2023-02-13T11:47:48;35.97;;;14.88;;
75768;SDS011;64379;48.888;8.330;2023-02-13T11:52:52;38.03;;;15.50;;
75768;SDS011;64379;48.888;8.330;2023-02-13T11:58:39;34.30;;;14.82;;
75768;SDS011;64379;48.888;8.330;2023-02-13T12:00:49;32.20;;;14.45;;
75768;SDS011;64379;48.888;8.330;2023-02-13T12:03:31;39.28;;;16.38;;
75768;SDS011;64379;48.888;8.330;2023-02-13T12:08:38;35.20;;;14.55;;
75768;SDS011;64379;48.888;8.330;2023-02-13T12:13:47;34.72;;;15.00;;
75768;SDS011;64379;48.888;8.330;2023-02-13T12:16:25;36.17;;;15.10;;
75768;SDS011;64379;48.888;8.330;2023-02-13T12:18:53;36.90;;;15.90;;
75768;SDS011;64379;48.888;8.330;2023-02-13T12:26:47;33.13;;;15.13;;
75768;SDS011;64379;48.888;8.330;2023-02-13T12:29:26;37.05;;;15.82;;
75768;SDS011;64379;48.888;8.330;2023-02-13T12:49:34;30.90;;;14.82;;
75768;SDS011;64379;48.888;8.330;2023-02-13T12:52:26;29.90;;;13.52;;
75768;SDS011;64379;48.888;8.330;2023-02-13T13:19:18;31.65;;;14.40;;
75768;SDS011;64379;48.888;8.330;2023-02-13T13:24:32;31.45;;;14.95;;
75768;SDS011;64379;48.888;8.330;2023-02-13T13:27:02;29.80;;;14.77;;
75768;SDS011;64379;48.888;8.330;2023-02-13T13:29:39;28.73;;;14.20;;
75768;SDS011;64379;48.888;8.330;2023-02-13T13:32:21;26.95;;;14.10;;
75768;SDS011;64379;48.888;8.330;2023-02-13T13:34:47;23.73;;;12.57;;
75768;SDS011;64379;48.888;8.330;2023-02-13T13:42:15;24.58;;;12.70;;
75768;SDS011;64379;48.888;8.330;2023-02-13T13:48:06;25.75;;;12.68;;
75768;SDS011;64379;48.888;8.330;2023-02-13T13:50:52;26.02;;;11.75;;
75768;SDS011;64379;48.888;8.330;2023-02-13T13:53:20;22.30;;;9.77;;
75768;SDS011;64379;48.888;8.330;2023-02-13T13:58:39;29.05;;;13.35;;
75768;SDS011;64379;48.888;8.330;2023-02-13T14:06:13;25.27;;;12.02;;
75768;SDS011;64379;48.888;8.330;2023-02-13T14:11:28;26.50;;;13.18;;
75768;SDS011;64379;48.888;8.330;2023-02-13T14:13:58;26.38;;;12.90;;
75768;SDS011;64379;48.888;8.330;2023-02-13T14:16:41;27.70;;;12.98;;
75768;SDS011;64379;48.888;8.330;2023-02-13T14:21:53;21.70;;;10.88;;
75768;SDS011;64379;48.888;8.330;2023-02-13T14:24:39;27.70;;;13.90;;
75768;SDS011;64379;48.888;8.330;2023-02-13T14:27:14;26.20;;;13.30;;
75768;SDS011;64379;48.888;8.330;2023-02-13T14:29:46;27.30;;;13.65;;
75768;SDS011;64379;48.888;8.330;2023-02-13T14:32:14;30.27;;;14.43;;
75768;SDS011;64379;48.888;8.330;2023-02-13T14:35:04;29.42;;;14.07;;
75768;SDS011;64379;48.888;8.330;2023-02-13T14:37:46;28.08;;;14.20;;
75768;SDS011;64379;48.888;8.330;2023-02-13T14:42:59;28.88;;;13.45;;
75768;SDS011;64379;48.888;8.330;2023-02-13T14:45:47;24.17;;;13.48;;
75768;SDS011;64379;48.888;8.330;2023-02-13T14:51:28;25.25;;;13.35;;
75768;SDS011;64379;48.888;8.330;2023-02-13T14:54:25;29.65;;;14.27;;
75768;SDS011;64379;48.888;8.330;2023-02-13T14:59:41;27.65;;;14.70;;
75768;SDS011;64379;48.888;8.330;2023-02-13T15:02:17;26.42;;;13.18;;
75768;SDS011;64379;48.888;8.330;2023-02-13T15:07:27;29.80;;;15.63;;
75768;SDS011;64379;48.888;8.330;2023-02-13T15:09:57;26.23;;;14.68;;
75768;SDS011;64379;48.888;8.330;2023-02-13T15:12:44;29.70;;;15.32;;
75768;SDS011;64379;48.888;8.330;2023-02-13T15:15:31;28.00;;;13.82;;
75768;SDS011;64379;48.888;8.330;2023-02-13T15:18:08;25.30;;;13.35;;
75768;SDS011;64379;48.888;8.330;2023-02-13T15:20:41;28.42;;;13.63;;
75768;SDS011;64379;48.888;8.330;2023-02-13T15:23:11;24.50;;;13.40;;
75768;SDS011;64379;48.888;8.330;2023-02-13T15:26:03;25.15;;;12.93;;
75768;SDS011;64379;48.888;8.330;2023-02-13T15:28:30;26.73;;;14.05;;
75768;SDS011;64379;48.888;8.330;2023-02-13T15:30:59;27.92;;;13.38;;
75768;SDS011;64379;48.888;8.330;2023-02-13T15:38:41;27.10;;;13.65;;
75768;SDS011;64379;48.888;8.330;2023-02-13T15:41:21;28.45;;;13.63;;
75768;SDS011;64379;48.888;8.330;2023-02-13T15:43:49;29.50;;;14.68;;
75768;SDS011;64379;48.888;8.330;2023-02-13T15:49:13;29.88;;;14.77;;
75768;SDS011;64379;48.888;8.330;2023-02-13T15:51:41;28.98;;;14.93;;
75768;SDS011;64379;48.888;8.330;2023-02-13T15:56:48;30.65;;;15.70;;
75768;SDS011;64379;48.888;8.330;2023-02-13T15:59:15;29.40;;;15.63;;
75768;SDS011;64379;48.888;8.330;2023-02-13T16:01:43;37.78;;;16.00;;
75768;SDS011;64379;48.888;8.330;2023-02-13T16:04:10;31.17;;;15.15;;
75768;SDS011;64379;48.888;8.330;2023-02-13T16:06:39;33.47;;;16.17;;
75768;SDS011;64379;48.888;8.330;2023-02-13T16:09:28;33.17;;;15.73;;
75768;SDS011;64379;48.888;8.330;2023-02-13T16:12:00;32.25;;;14.90;;
75768;SDS011;64379;48.888;8.330;2023-02-13T16:14:32;31.58;;;15.90;;
75768;SDS011;64379;48.888;8.330;2023-02-13T16:27:51;54.70;;;23.33;;
75768;SDS011;64379;48.888;8.330;2023-02-13T16:30:31;57.20;;;22.55;;
75768;SDS011;64379;48.888;8.330;2023-02-13T16:35:49;37.97;;;16.23;;
75768;SDS011;64379;48.888;8.330;2023-02-13T16:38:30;39.90;;;16.20;;
75768;SDS011;64379;48.888;8.330;2023-02-13T16:46:36;39.28;;;16.55;;
75768;SDS011;64379;48.888;8.330;2023-02-13T16:56:41;49.28;;;21.55;;
75768;SDS011;64379;48.888;8.330;2023-02-13T16:59:19;54.97;;;23.23;;
75768;SDS011;64379;48.888;8.330;2023-02-13T17:04:45;53.80;;;22.40;;
75768;SDS011;64379;48.888;8.330;2023-02-13T17:07:19;56.33;;;25.27;;
75768;SDS011;64379;48.888;8.330;2023-02-13T17:10:09;46.55;;;21.17;;
75768;SDS011;64379;48.888;8.330;2023-02-13T17:12:41;43.83;;;19.80;;
75768;SDS011;64379;48.888;8.330;2023-02-13T17:15:11;40.42;;;18.63;;
75768;SDS011;64379;48.888;8.330;2023-02-13T17:17:39;41.72;;;17.40;;
75768;SDS011;64379;48.888;8.330;2023-02-13T17:20:05;43.92;;;19.92;;
75768;SDS011;64379;48.888;8.330;2023-02-13T17:22:36;39.17;;;18.50;;
75768;SDS011;64379;48.888;8.330;2023-02-13T17:25:07;41.13;;;18.63;;
75768;SDS011;64379;48.888;8.330;2023-02-13T17:27:39;39.38;;;18.23;;
75768;SDS011;64379;48.888;8.330;2023-02-13T17:30:06;40.58;;;19.25;;
75768;SDS011;64379;48.888;8.330;2023-02-13T17:32:36;42.28;;;18.25;;
75768;SDS011;64379;48.888;8.330;2023-02-13T17:35:02;40.15;;;17.10;;
75768;SDS011;64379;48.888;8.330;2023-02-13T17:37:28;39.00;;;16.08;;
75768;SDS011;64379;48.888;8.330;2023-02-13T17:39:54;36.80;;;17.23;;
75768;SDS011;64379;48.888;8.330;2023-02-13T17:44:47;39.47;;;17.63;;
75768;SDS011;64379;48.888;8.330;2023-02-13T17:47:13;44.28;;;20.25;;
75768;SDS011;64379;48.888;8.330;2023-02-13T17:49:39;40.45;;;18.52;;
75768;SDS011;64379;48.888;8.330;2023-02-13T17:52:04;43.72;;;19.95;;
75768;SDS011;64379;48.888;8.330;2023-02-13T17:54:30;48.10;;;20.15;;
75768;SDS011;64379;48.888;8.330;2023-02-13T17:59:31;45.35;;;20.30;;
75768;SDS011;64379;48.888;8.330;2023-02-13T18:01:57;48.20;;;19.55;;
75768;SDS011;64379;48.888;8.330;2023-02-13T18:04:23;41.67;;;19.13;;
75768;SDS011;64379;48.888;8.330;2023-02-13T18:06:52;41.05;;;18.67;;
75768;SDS011;64379;48.888;8.330;2023-02-13T18:09:18;44.25;;;18.55;;
75768;SDS011;64379;48.888;8.330;2023-02-13T18:11:45;40.50;;;17.27;;
75768;SDS011;64379;48.888;8.330;2023-02-13T18:14:12;36.15;;;17.77;;
75768;SDS011;64379;48.888;8.330;2023-02-13T18:16:37;41.80;;;18.42;;
75768;SDS011;64379;48.888;8.330;2023-02-13T18:19:03;41.22;;;17.08;;
75768;SDS011;64379;48.888;8.330;2023-02-13T18:21:29;39.33;;;16.73;;
75768;SDS011;64379;48.888;8.330;2023-02-13T18:23:55;37.95;;;17.70;;
75768;SDS011;64379;48.888;8.330;2023-02-13T18:26:21;52.35;;;24.23;;
75768;SDS011;64379;48.888;8.330;2023-02-13T18:28:47;42.55;;;18.33;;
75768;SDS011;64379;48.888;8.330;2023-02-13T18:31:16;39.05;;;17.85;;
75768;SDS011;64379;48.888;8.330;2023-02-13T18:33:43;41.60;;;18.38;;
75768;SDS011;64379;48.888;8.330;2023-02-13T18:36:09;43.97;;;18.42;;
75768;SDS011;64379;48.888;8.330;2023-02-13T18:38:35;41.28;;;17.67;;
75768;SDS011;64379;48.888;8.330;2023-02-13T18:41:01;41.53;;;16.17;;